Time;durP1;ratioP1;P1;durP2;ratioP2;P2;SDS_P1;SDS_P2;PMS_P1;PMS_P2;Temp;Humidity;BMP_temperature;BMP_pressure;BME280_temperature;BME280_humidity;BME280_pressure;Samples;Min_cycle;Max_cycle;Signal;HPM_P1;HPM_P2
2021/03/05 00:03:36;;;;;;;2.50;1.60;;;;;;;4.35;100.00;99151.27;3813100;76;383571;-81
2021/03/05 00:08:57;;;;;;;4.00;1.13;;;;;;;4.28;100.00;99154.41;3812632;76;396028;-80
2021/03/05 00:14:18;;;;;;;2.73;0.67;;;;;;;4.27;100.00;99172.69;3813636;76;383580;-80
2021/03/05 00:19:39;;;;;;;0.90;0.60;;;;;;;4.19;100.00;99166.87;3813951;76;383541;-80
2021/03/05 00:25:00;;;;;;;1.27;1.17;;;;;;;4.15;100.00;99178.23;3813619;76;387785;-81
2021/03/05 00:30:23;;;;;;;2.10;1.63;;;;;;;4.05;100.00;99189.66;3812419;76;396318;-80
2021/03/05 00:35:44;;;;;;;1.80;1.70;;;;;;;3.99;100.00;99196.53;3813363;76;383583;-80
2021/03/05 00:41:05;;;;;;;1.50;1.40;;;;;;;3.86;100.00;99209.22;3813052;76;391902;-80
2021/03/05 00:46:27;;;;;;;2.50;2.33;;;;;;;3.81;100.00;99228.54;3813330;76;383835;-81
2021/03/05 00:51:48;;;;;;;1.90;1.63;;;;;;;3.65;100.00;99231.83;3813074;76;396077;-81
2021/03/05 00:57:09;;;;;;;0.90;0.80;;;;;;;3.48;100.00;99228.08;3813753;76;383793;-80
2021/03/05 01:02:31;;;;;;;1.73;1.33;;;;;;;3.48;100.00;99229.99;3812832;76;394214;-81
2021/03/05 01:07:53;;;;;;;1.33;1.10;;;;;;;3.45;100.00;99241.00;3812703;76;394056;-81
2021/03/05 01:13:15;;;;;;;1.20;1.03;;;;;;;3.44;100.00;99253.59;3813210;76;391855;-81
2021/03/05 01:18:37;;;;;;;2.53;2.00;;;;;;;3.69;100.00;99260.48;3813206;76;396079;-81
2021/03/05 01:23:57;;;;;;;1.80;0.70;;;;;;;3.77;100.00;99262.23;3779867;75;391895;-82
2021/03/05 01:29:18;;;;;;;5.40;1.63;;;;;;;3.45;100.00;99269.55;3778374;76;395066;-82
2021/03/05 01:34:40;;;;;;;1.83;1.63;;;;;;;3.62;100.00;99263.80;3778540;76;394076;-81
2021/03/05 01:40:01;;;;;;;5.57;1.17;;;;;;;3.41;100.00;99274.67;3778259;77;393941;-81
2021/03/05 01:45:25;;;;;;;4.90;2.60;;;;;;;3.39;100.00;99283.77;3778122;76;392166;-81
2021/03/05 01:51:07;;;;;;;2.40;2.20;;;;;;;3.42;100.00;99283.06;3777809;76;396285;-81
2021/03/05 01:56:34;;;;;;;1.43;1.30;;;;;;;3.38;100.00;99290.34;3777879;76;396510;-81
2021/03/05 02:02:07;;;;;;;1.30;1.17;;;;;;;3.33;100.00;99281.87;3778686;77;383797;-80
2021/03/05 02:07:28;;;;;;;2.40;2.20;;;;;;;3.37;100.00;99281.96;3778146;76;396359;-81
2021/03/05 02:12:49;;;;;;;1.57;1.20;;;;;;;3.40;100.00;99290.77;3777922;76;396104;-81
2021/03/05 02:18:17;;;;;;;1.00;0.90;;;;;;;3.50;100.00;99292.44;3779269;76;383790;-80
2021/03/05 02:24:06;;;;;;;1.20;1.10;;;;;;;3.35;100.00;99288.30;3778317;77;395058;-80
2021/03/05 02:29:58;;;;;;;1.00;0.70;;;;;;;3.54;100.00;99293.31;3778975;76;383801;-81
2021/03/05 02:35:21;;;;;;;0.80;0.60;;;;;;;3.60;100.00;99293.85;3779034;77;383572;-81
2021/03/05 02:40:44;;;;;;;2.27;1.00;;;;;;;3.65;100.00;99297.11;3778392;76;393957;-80
2021/03/05 02:46:08;;;;;;;5.47;2.07;;;;;;;3.70;100.00;99297.43;3778050;76;395297;-80
2021/03/05 02:51:32;;;;;;;1.93;1.50;;;;;;;3.50;100.00;99301.15;3779173;76;396167;-80
2021/03/05 02:56:55;;;;;;;2.93;1.80;;;;;;;3.58;100.00;99305.64;3778218;77;396090;-80
2021/03/05 03:02:16;;;;;;;2.03;1.77;;;;;;;3.51;100.00;99308.17;3777864;76;395290;-80
2021/03/05 03:07:41;;;;;;;1.30;0.90;;;;;;;3.43;100.00;99305.04;3778446;77;389838;-80
2021/03/05 03:13:04;;;;;;;1.40;1.30;;;;;;;3.68;100.00;99317.38;3778786;76;387762;-80
2021/03/05 03:18:27;;;;;;;1.07;0.97;;;;;;;3.69;100.00;99327.91;3778637;77;392963;-80
2021/03/05 03:23:49;;;;;;;1.87;1.27;;;;;;;3.48;100.00;99337.41;3807297;76;395049;-80
2021/03/05 03:29:11;;;;;;;1.17;0.83;;;;;;;3.35;100.00;99348.13;3819598;76;385654;-80
2021/03/05 03:34:33;;;;;;;1.47;1.37;;;;;;;3.34;100.00;99347.89;3818410;76;396079;-80
2021/03/05 03:39:54;;;;;;;3.93;2.10;;;;;;;3.12;100.00;99347.07;3817859;76;396331;-80
2021/03/05 03:45:18;;;;;;;4.60;1.20;;;;;;;3.25;100.00;99352.68;3818322;76;396084;-80
2021/03/05 03:50:42;;;;;;;3.17;2.87;;;;;;;3.16;100.00;99352.02;3817640;76;396165;-80
2021/03/05 03:56:05;;;;;;;0.90;0.60;;;;;;;3.19;100.00;99363.58;3819106;76;383844;-80
2021/03/05 04:01:26;;;;;;;1.13;0.90;;;;;;;3.33;100.00;99363.98;3818350;76;387809;-79
2021/03/05 04:06:49;;;;;;;2.30;1.33;;;;;;;3.12;100.00;99367.45;3818200;76;383572;-80
2021/03/05 04:12:11;;;;;;;2.07;1.97;;;;;;;3.19;100.00;99371.73;3817366;76;395042;-79
2021/03/05 04:17:32;;;;;;;2.20;2.00;;;;;;;3.34;100.00;99375.89;3818169;76;393996;-79
2021/03/05 04:22:54;;;;;;;2.43;1.33;;;;;;;3.16;100.00;99379.20;3817917;75;396383;-79
2021/03/05 04:28:15;;;;;;;1.43;1.33;;;;;;;3.44;100.00;99386.26;3818154;76;396080;-79
2021/03/05 04:33:36;;;;;;;1.27;1.17;;;;;;;3.57;100.00;99385.09;3817425;76;396393;-79
2021/03/05 04:38:58;;;;;;;1.73;1.43;;;;;;;3.37;100.00;99385.28;3818530;76;389870;-79
2021/03/05 04:44:20;;;;;;;5.17;1.80;;;;;;;3.40;100.00;99396.27;3817593;76;394040;-79
2021/03/05 04:49:41;;;;;;;1.47;1.37;;;;;;;3.45;100.00;99397.37;3818166;76;387789;-79
2021/03/05 04:55:03;;;;;;;5.43;1.57;;;;;;;3.43;100.00;99392.05;3818552;76;385709;-79
2021/03/05 05:00:25;;;;;;;4.67;1.70;;;;;;;3.31;100.00;99413.86;3818735;76;394011;-79
2021/03/05 05:05:46;;;;;;;1.67;1.43;;;;;;;3.32;100.00;99418.94;3817854;76;395037;-79
2021/03/05 05:11:07;;;;;;;3.13;2.80;;;;;;;3.53;100.00;99425.57;3818238;76;396091;-79
2021/03/05 05:16:28;;;;;;;3.63;3.23;;;;;;;3.47;100.00;99429.67;3817626;76;396111;-79
2021/03/05 05:21:50;;;;;;;5.63;4.03;;;;;;;3.52;100.00;99430.78;3816472;76;396337;-79
2021/03/05 05:27:12;;;;;;;7.80;1.93;;;;;;;3.51;100.00;99430.00;3804131;76;393263;-79
2021/03/05 05:32:33;;;;;;;2.13;1.40;;;;;;;3.40;100.00;99432.97;3805439;76;394281;-79
2021/03/05 05:37:54;;;;;;;1.73;1.57;;;;;;;3.45;100.00;99440.88;3806019;76;383623;-79
2021/03/05 05:43:16;;;;;;;0.80;0.50;;;;;;;3.42;100.00;99444.30;3806787;76;383924;-79
2021/03/05 05:48:39;;;;;;;2.80;2.27;;;;;;;3.44;100.00;99442.59;3802902;77;396392;-79
2021/03/05 05:54:06;;;;;;;3.37;3.03;;;;;;;3.42;100.00;99444.30;3803685;75;396137;-79
2021/03/05 05:59:28;;;;;;;2.43;1.63;;;;;;;3.14;100.00;99456.25;3805731;76;396116;-79
2021/03/05 06:04:51;;;;;;;7.03;2.63;;;;;;;3.12;100.00;99464.48;3801660;77;396123;-78
2021/03/05 06:10:12;;;;;;;2.70;2.30;;;;;;;3.31;100.00;99464.16;3800628;76;396036;-79
2021/03/05 06:15:33;;;;;;;4.73;1.87;;;;;;;3.37;100.00;99469.58;3803570;76;392104;-81
2021/03/05 06:20:55;;;;;;;5.53;3.57;;;;;;;3.46;100.00;99471.59;3804842;76;394068;-78
2021/03/05 06:26:16;;;;;;;11.50;3.63;;;;;;;3.50;100.00;99475.20;3812669;76;394348;-80
2021/03/05 06:31:38;;;;;;;10.23;1.83;;;;;;;3.43;100.00;99484.52;3799957;76;391938;-79
2021/03/05 06:37:01;;;;;;;2.70;2.10;;;;;;;3.43;100.00;99496.16;3800958;76;396053;-79
2021/03/05 06:42:22;;;;;;;1.77;1.00;;;;;;;3.43;100.00;99517.14;3782591;76;385628;-79
2021/03/05 06:48:07;;;;;;;1.90;1.50;;;;;;;3.39;100.00;99520.34;3777830;76;395054;-79
2021/03/05 06:53:29;;;;;;;2.80;2.60;;;;;;;3.64;100.00;99523.22;3778082;76;395021;-79
2021/03/05 06:59:05;;;;;;;12.10;2.63;;;;;;;3.56;100.00;99531.75;3778094;76;393935;-79
2021/03/05 07:04:31;;;;;;;2.30;2.10;;;;;;;3.59;100.00;99540.59;3777694;77;396357;-79
2021/03/05 07:09:54;;;;;;;4.10;2.40;;;;;;;3.51;100.00;99548.31;3778599;76;396105;-78
2021/03/05 07:15:15;;;;;;;6.53;3.17;;;;;;;3.47;100.00;99562.35;3778235;76;396080;-79
2021/03/05 07:20:37;;;;;;;7.00;4.10;;;;;;;3.38;100.00;99569.05;3778812;76;394009;-78
2021/03/05 07:25:59;;;;;;;3.03;2.07;;;;;;;3.44;100.00;99569.82;3802088;76;396432;-78
2021/03/05 07:31:23;;;;;;;1.27;1.17;;;;;;;3.59;100.00;99572.42;3812866;76;394998;-78
2021/03/05 07:36:50;;;;;;;2.93;1.50;;;;;;;3.61;100.00;99589.20;3812587;76;396081;-78
2021/03/05 07:42:11;;;;;;;7.57;3.17;;;;;;;3.72;100.00;99588.41;3813039;76;396468;-79
2021/03/05 07:47:35;;;;;;;2.17;2.07;;;;;;;3.78;100.00;99601.21;3812116;76;396158;-78
2021/03/05 07:53:01;;;;;;;3.33;2.33;;;;;;;3.88;100.00;99615.72;3812204;76;396308;-78
2021/03/05 07:58:46;;;;;;;5.57;4.30;;;;;;;3.98;100.00;99616.81;3812784;76;395076;-78
2021/03/05 08:04:07;;;;;;;3.23;2.00;;;;;;;3.96;100.00;99631.33;3813021;76;394273;-79
2021/03/05 08:09:32;;;;;;;1.40;1.30;;;;;;;4.04;100.00;99634.48;3812911;76;396171;-79
2021/03/05 08:14:55;;;;;;;1.77;1.60;;;;;;;3.92;100.00;99635.66;3812740;76;396123;-79
2021/03/05 08:20:21;;;;;;;1.00;0.87;;;;;;;4.16;100.00;99648.09;3798550;76;391910;-78
2021/03/05 08:25:52;;;;;;;1.20;1.00;;;;;;;4.16;100.00;99654.91;3815857;75;391925;-78
2021/03/05 08:31:36;;;;;;;1.00;0.90;;;;;;;4.27;100.00;99665.55;3818584;76;383587;-78
2021/03/05 08:36:58;;;;;;;3.43;0.70;;;;;;;4.34;100.00;99679.38;3818221;77;386701;-79
2021/03/05 08:42:35;;;;;;;4.83;1.37;;;;;;;4.49;100.00;99677.30;3818314;77;383648;-78
2021/03/05 08:47:58;;;;;;;1.73;0.80;;;;;;;4.62;100.00;99676.11;3817968;77;391952;-79
2021/03/05 08:53:19;;;;;;;1.07;0.97;;;;;;;4.87;100.00;99679.77;3818018;76;392096;-78
2021/03/05 08:58:42;;;;;;;1.80;1.70;;;;;;;5.05;100.00;99687.84;3817488;76;396043;-79
2021/03/05 09:04:17;;;;;;;2.33;1.90;;;;;;;4.99;100.00;99687.89;3817680;76;391949;-78
2021/03/05 09:09:39;;;;;;;1.20;0.97;;;;;;;4.95;100.00;99695.74;3818409;76;387780;-78
2021/03/05 09:15:03;;;;;;;1.00;0.70;;;;;;;4.95;100.00;99702.55;3818413;76;385624;-77
2021/03/05 09:20:27;;;;;;;1.20;0.90;;;;;;;5.08;100.00;99707.62;3818419;76;385656;-78
2021/03/05 09:25:51;;;;;;;2.70;1.23;;;;;;;4.96;100.00;99705.52;3816671;75;391909;-78
2021/03/05 09:31:24;;;;;;;1.00;0.90;;;;;;;4.99;100.00;99722.55;3812252;76;393966;-78
2021/03/05 09:36:45;;;;;;;0.80;0.47;;;;;;;5.14;100.00;99729.39;3813684;76;383571;-78
2021/03/05 09:42:06;;;;;;;0.80;0.50;;;;;;;5.26;100.00;99737.53;3813706;76;383796;-78
2021/03/05 09:47:30;;;;;;;0.80;0.50;;;;;;;5.36;100.00;99744.41;3813394;76;383847;-80
2021/03/05 09:52:52;;;;;;;0.80;0.50;;;;;;;5.44;100.00;99748.91;3813709;76;383560;-79
2021/03/05 09:58:13;;;;;;;1.23;0.53;;;;;;;5.43;100.00;99763.14;3825895;76;386661;-79
2021/03/05 10:03:34;;;;;;;0.90;0.70;;;;;;;5.50;100.00;99768.78;3817213;76;389776;-79
2021/03/05 10:09:07;;;;;;;0.80;0.40;;;;;;;5.59;100.00;99777.03;3813847;76;383978;-79
2021/03/05 10:14:32;;;;;;;0.97;0.87;;;;;;;5.51;100.00;99786.16;3812513;77;391936;-79
2021/03/05 10:19:53;;;;;;;1.23;0.70;;;;;;;5.49;99.68;99784.16;3813000;76;389840;-77
2021/03/05 10:25:14;;;;;;;2.93;2.60;;;;;;;5.70;100.00;99797.22;3812954;75;383579;-77
2021/03/05 10:30:35;;;;;;;2.70;1.57;;;;;;;5.26;100.00;99808.45;3812727;76;396099;-78
2021/03/05 10:35:58;;;;;;;1.43;1.33;;;;;;;4.92;100.00;99820.50;3813396;76;383567;-78
2021/03/05 10:41:21;;;;;;;1.37;1.27;;;;;;;4.66;100.00;99824.16;3812695;76;396088;-78
2021/03/05 10:46:43;;;;;;;0.80;0.40;;;;;;;4.62;100.00;99831.42;3813670;76;383576;-78
2021/03/05 10:52:05;;;;;;;2.60;1.50;;;;;;;4.84;100.00;99839.92;3813014;77;383537;-78
2021/03/05 10:57:26;;;;;;;3.47;1.60;;;;;;;4.71;97.53;99844.95;3813448;76;383615;-78
2021/03/05 11:02:47;;;;;;;1.57;0.83;;;;;;;4.68;95.08;99851.06;3812973;76;391898;-78
2021/03/05 11:08:10;;;;;;;4.37;1.00;;;;;;;6.61;83.54;99857.72;3813464;76;383540;-79
2021/03/05 11:13:31;;;;;;;1.07;0.80;;;;;;;7.06;80.45;99852.53;3813304;76;388907;-78
2021/03/05 11:18:52;;;;;;;1.57;0.70;;;;;;;8.30;63.79;99854.06;3813323;77;391952;-78
2021/03/05 11:24:14;;;;;;;1.80;1.07;;;;;;;7.79;64.92;99862.28;3812668;76;394947;-78
2021/03/05 11:29:37;;;;;;;1.80;0.77;;;;;;;7.04;65.12;99862.22;3813319;76;388714;-78
2021/03/05 11:34:58;;;;;;;2.83;1.80;;;;;;;6.21;64.93;99865.89;3813292;76;383599;-78
2021/03/05 11:40:20;;;;;;;1.03;0.90;;;;;;;5.75;65.50;99869.88;3813462;76;383808;-78
2021/03/05 11:45:41;;;;;;;3.30;1.40;;;;;;;5.52;66.12;99877.03;3812789;76;394249;-78
2021/03/05 11:51:02;;;;;;;4.07;1.57;;;;;;;5.53;64.52;99888.95;3813243;76;383565;-78
2021/03/05 11:56:23;;;;;;;0.90;0.57;;;;;;;5.59;67.05;99886.78;3813794;76;383863;-78
2021/03/05 12:01:44;;;;;;;4.40;1.33;;;;;;;5.67;66.07;99889.34;3813190;76;387988;-78
2021/03/05 12:07:06;;;;;;;1.10;0.80;;;;;;;6.53;65.52;99882.52;3813062;76;392897;-78
2021/03/05 12:12:27;;;;;;;0.90;0.70;;;;;;;6.53;64.70;99886.63;3812381;76;387736;-78
2021/03/05 12:17:48;;;;;;;0.90;0.60;;;;;;;6.14;62.92;99894.37;3813728;77;383572;-78
2021/03/05 12:23:10;;;;;;;1.10;0.83;;;;;;;5.97;62.64;99897.45;3813573;77;383614;-78
2021/03/05 12:28:32;;;;;;;1.67;1.23;;;;;;;6.06;61.64;99899.42;3816407;75;396112;-78
2021/03/05 12:33:54;;;;;;;1.03;0.77;;;;;;;6.71;59.12;99899.56;3819102;76;387797;-78
2021/03/05 12:39:16;;;;;;;1.37;0.80;;;;;;;6.75;57.34;99905.12;3808059;76;383810;-78
2021/03/05 12:44:37;;;;;;;1.13;1.03;;;;;;;6.30;55.57;99908.84;3807369;76;383595;-78
2021/03/05 12:49:58;;;;;;;1.10;0.70;;;;;;;6.11;55.24;99917.50;3806748;76;392912;-78
2021/03/05 12:55:19;;;;;;;1.83;1.27;;;;;;;6.27;56.23;99923.23;3806851;76;396040;-78
2021/03/05 13:00:40;;;;;;;0.90;0.63;;;;;;;6.32;56.65;99924.91;3807737;76;383780;-78
2021/03/05 13:06:01;;;;;;;0.90;0.73;;;;;;;6.20;57.61;99936.70;3807993;76;383781;-78
2021/03/05 13:11:22;;;;;;;1.63;0.93;;;;;;;6.22;59.28;99946.69;3806515;77;395073;-78
2021/03/05 13:16:44;;;;;;;1.50;0.67;;;;;;;6.19;57.46;99951.50;3807377;76;387786;-77
2021/03/05 13:22:05;;;;;;;2.37;0.80;;;;;;;6.15;56.50;99957.42;3806958;76;389872;-78
2021/03/05 13:27:27;;;;;;;1.30;0.90;;;;;;;6.39;54.27;99958.66;3802410;75;394242;-78
2021/03/05 13:32:48;;;;;;;2.53;0.70;;;;;;;6.90;53.04;99969.95;3802516;75;383575;-78
2021/03/05 13:38:09;;;;;;;1.20;0.70;;;;;;;6.78;51.95;99974.16;3792214;75;388744;-78
2021/03/05 13:43:30;;;;;;;0.90;0.53;;;;;;;6.53;51.24;99980.92;3811515;76;383584;-77
2021/03/05 13:48:53;;;;;;;1.37;0.57;;;;;;;6.36;55.55;99990.22;3810660;76;383812;-76
2021/03/05 13:54:14;;;;;;;5.33;1.43;;;;;;;6.34;54.92;99997.19;3789380;77;383583;-76
2021/03/05 13:59:35;;;;;;;1.00;0.90;;;;;;;6.18;52.71;100007.28;3800220;76;391886;-76
2021/03/05 14:04:56;;;;;;;1.20;1.03;;;;;;;5.99;52.99;100016.67;3815187;76;387735;-75
2021/03/05 14:10:18;;;;;;;1.20;1.10;;;;;;;6.13;55.36;100017.66;3800060;75;383583;-75
2021/03/05 14:15:41;;;;;;;2.27;0.70;;;;;;;5.83;54.44;100021.27;3815621;76;383568;-75
2021/03/05 14:21:02;;;;;;;1.87;1.50;;;;;;;5.69;52.98;100035.84;3807824;76;383583;-75
2021/03/05 14:26:23;;;;;;;0.80;0.50;;;;;;;5.77;53.84;100040.98;3815536;75;383832;-75
2021/03/05 14:31:45;;;;;;;0.90;0.60;;;;;;;5.88;53.50;100038.80;3803566;75;383905;-76
2021/03/05 14:37:06;;;;;;;1.83;0.90;;;;;;;6.29;52.73;100050.73;3805215;75;383840;-77
2021/03/05 14:42:27;;;;;;;1.67;1.57;;;;;;;6.39;51.44;100057.05;3804503;75;396126;-74
2021/03/05 14:47:49;;;;;;;2.37;1.90;;;;;;;7.28;47.99;100050.25;3803080;76;391882;-73
2021/03/05 14:53:11;;;;;;;0.90;0.60;;;;;;;7.93;45.84;100061.17;3805608;76;383785;-74
2021/03/05 14:58:32;;;;;;;0.87;0.50;;;;;;;7.37;44.36;100074.14;3741392;77;383589;-75
2021/03/05 15:03:53;;;;;;;0.90;0.60;;;;;;;6.73;46.07;100082.41;3787209;76;383588;-74
2021/03/05 15:09:14;;;;;;;1.43;0.80;;;;;;;8.10;43.46;100089.53;3765648;77;390917;-74
2021/03/05 15:14:37;;;;;;;0.90;0.60;;;;;;;8.63;41.23;100081.88;3880287;74;384906;-74
2021/03/05 15:19:58;;;;;;;1.20;0.87;;;;;;;9.28;40.30;100082.89;3881999;74;391896;-74
2021/03/05 15:25:19;;;;;;;0.90;0.50;;;;;;;9.48;41.19;100086.58;3882865;74;384800;-73
2021/03/05 15:30:40;;;;;;;1.63;1.37;;;;;;;8.37;43.64;100094.08;3881770;74;391919;-73
2021/03/05 15:36:01;;;;;;;1.47;0.50;;;;;;;7.30;44.92;100102.70;3882530;74;384571;-74
2021/03/05 15:41:23;;;;;;;0.90;0.60;;;;;;;7.17;44.71;100108.83;3882798;75;384548;-74
2021/03/05 15:46:44;;;;;;;0.90;0.50;;;;;;;7.71;42.29;100107.63;3882801;74;384555;-74
2021/03/05 15:52:06;;;;;;;1.00;0.80;;;;;;;6.91;44.57;100118.66;3882567;75;384573;-75
2021/03/05 15:57:27;;;;;;;0.93;0.80;;;;;;;7.19;44.30;100128.41;3882636;74;383590;-74
2021/03/05 16:02:48;;;;;;;1.30;0.73;;;;;;;8.13;41.54;100124.45;3882269;74;390055;-74
2021/03/05 16:08:10;;;;;;;0.80;0.50;;;;;;;9.27;37.27;100132.09;3882723;75;383598;-74
2021/03/05 16:13:31;;;;;;;3.27;0.83;;;;;;;9.78;35.44;100126.72;3882046;74;390762;-75
2021/03/05 16:18:52;;;;;;;0.90;0.53;;;;;;;10.12;36.28;100139.45;3882657;74;384508;-74
2021/03/05 16:24:13;;;;;;;0.90;0.57;;;;;;;9.22;39.54;100142.80;3882692;75;383834;-74
2021/03/05 16:29:35;;;;;;;1.10;0.80;;;;;;;8.07;39.03;100151.93;3886895;74;383826;-75
2021/03/05 16:34:56;;;;;;;1.00;0.73;;;;;;;7.12;42.21;100162.43;3893791;74;388699;-74
2021/03/05 16:40:17;;;;;;;1.63;0.70;;;;;;;6.03;44.52;100171.09;3893994;74;383849;-75
2021/03/05 16:45:38;;;;;;;1.53;1.03;;;;;;;5.25;47.25;100183.88;3893427;74;392121;-75
2021/03/05 16:51:00;;;;;;;1.53;1.30;;;;;;;5.01;49.30;100194.14;3870411;75;394047;-74
2021/03/05 16:56:21;;;;;;;2.93;1.23;;;;;;;4.78;51.26;100201.65;3892950;74;395063;-75
2021/03/05 17:01:42;;;;;;;0.90;0.60;;;;;;;4.46;52.54;100211.93;3894129;74;383795;-74
2021/03/05 17:07:04;;;;;;;6.77;1.47;;;;;;;4.38;52.95;100224.27;3893345;74;391854;-75
2021/03/05 17:12:25;;;;;;;2.40;1.17;;;;;;;4.36;53.79;100225.15;3874074;75;390022;-74
2021/03/05 17:17:47;;;;;;;0.97;0.63;;;;;;;4.25;54.12;100239.73;3894064;74;383822;-74
2021/03/05 17:23:08;;;;;;;4.03;2.00;;;;;;;4.03;54.86;100253.63;3893329;75;387766;-74
2021/03/05 17:28:31;;;;;;;1.20;1.03;;;;;;;3.80;55.02;100254.75;3876883;74;387764;-74
2021/03/05 17:33:52;;;;;;;1.40;1.17;;;;;;;3.48;54.25;100258.06;3886544;75;396042;-74
2021/03/05 17:39:13;;;;;;;3.63;2.47;;;;;;;3.25;54.20;100270.28;3887053;74;391920;-74
2021/03/05 17:44:34;;;;;;;4.90;1.67;;;;;;;3.14;54.51;100282.62;3869516;75;388071;-74
2021/03/05 17:49:55;;;;;;;2.37;1.30;;;;;;;3.07;56.08;100298.59;3886373;74;389822;-73
2021/03/05 17:55:17;;;;;;;2.50;1.63;;;;;;;2.96;60.72;100312.29;3885986;74;395021;-74
2021/03/05 18:00:38;;;;;;;1.23;1.13;;;;;;;2.59;61.96;100326.46;3886444;75;383846;-73
2021/03/05 18:05:59;;;;;;;2.40;2.10;;;;;;;2.37;63.64;100329.30;3885835;74;393994;-74
2021/03/05 18:11:21;;;;;;;2.10;1.60;;;;;;;2.14;65.14;100335.69;3885899;75;396104;-74
2021/03/05 18:16:42;;;;;;;3.17;2.97;;;;;;;2.08;65.97;100335.59;3849305;76;396167;-73
2021/03/05 18:22:04;;;;;;;2.60;1.77;;;;;;;1.95;67.60;100343.25;3851550;74;396346;-73
2021/03/05 18:27:25;;;;;;;1.87;1.03;;;;;;;1.73;68.11;100349.55;3853189;74;391976;-75
2021/03/05 18:32:46;;;;;;;0.83;0.50;;;;;;;1.57;69.54;100354.30;3880142;73;383818;-73
2021/03/05 18:38:08;;;;;;;1.33;1.23;;;;;;;1.47;70.30;100368.11;3882460;74;396099;-73
2021/03/05 18:43:29;;;;;;;4.03;1.50;;;;;;;1.30;70.09;100368.55;3880777;74;395040;-74
2021/03/05 18:48:51;;;;;;;1.47;1.20;;;;;;;1.07;71.36;100377.77;3881167;74;388819;-73
2021/03/05 18:54:12;;;;;;;2.13;1.93;;;;;;;0.88;72.96;100381.98;3882410;74;394293;-73
2021/03/05 18:59:33;;;;;;;3.73;1.30;;;;;;;0.78;73.44;100383.55;3881935;74;391908;-73
2021/03/05 19:04:54;;;;;;;0.90;0.77;;;;;;;0.68;75.15;100387.03;3882056;74;391947;-73
2021/03/05 19:10:16;;;;;;;1.00;0.80;;;;;;;0.57;74.77;100400.53;3882218;74;387827;-74
2021/03/05 19:15:38;;;;;;;1.53;1.37;;;;;;;0.48;75.08;100406.39;3881594;74;391961;-73
2021/03/05 19:20:58;;;;;;;1.10;0.83;;;;;;;0.41;76.99;100411.41;3883677;74;387812;-73
2021/03/05 19:26:20;;;;;;;4.33;1.50;;;;;;;0.31;78.51;100419.72;3881806;74;394010;-73
2021/03/05 19:31:41;;;;;;;3.20;1.20;;;;;;;0.27;79.68;100430.09;3884388;74;394047;-73
2021/03/05 19:37:02;;;;;;;1.30;1.20;;;;;;;0.20;81.15;100436.45;3887843;74;395349;-73
2021/03/05 19:42:23;;;;;;;1.33;1.23;;;;;;;0.16;79.80;100444.92;3887818;74;389822;-73
2021/03/05 19:47:44;;;;;;;1.93;1.17;;;;;;;0.07;79.04;100452.12;3888663;74;383586;-73
2021/03/05 19:53:06;;;;;;;1.73;1.63;;;;;;;0.16;77.34;100455.75;3888503;74;391918;-74
2021/03/05 19:58:27;;;;;;;0.90;0.70;;;;;;;0.07;78.55;100461.02;3888320;74;383573;-73
2021/03/05 20:03:48;;;;;;;2.00;1.87;;;;;;;0.16;77.54;100466.01;3888426;74;394234;-73
2021/03/05 20:09:09;;;;;;;2.23;1.90;;;;;;;0.15;77.61;100471.73;3887829;74;394050;-74
2021/03/05 20:14:31;;;;;;;5.70;2.90;;;;;;;0.06;77.25;100478.35;3888195;74;383581;-73
2021/03/05 20:19:52;;;;;;;4.90;3.10;;;;;;;0.02;77.31;100479.23;3887893;74;390811;-73
2021/03/05 20:25:14;;;;;;;4.40;3.13;;;;;;;-0.04;78.93;100486.41;3887536;74;396081;-73
2021/03/05 20:30:35;;;;;;;4.27;2.43;;;;;;;-0.23;80.82;100490.48;3888715;74;396180;-73
2021/03/05 20:35:56;;;;;;;4.83;2.13;;;;;;;-0.31;82.50;100501.17;3888513;74;396295;-73
2021/03/05 20:41:18;;;;;;;2.70;2.60;;;;;;;-0.32;84.23;100505.75;3887736;74;396022;-74
2021/03/05 20:46:39;;;;;;;5.70;3.67;;;;;;;-0.58;85.05;100510.48;3887720;74;396349;-73
2021/03/05 20:52:00;;;;;;;1.10;1.00;;;;;;;-0.73;84.45;100514.19;3888638;74;385622;-73
2021/03/05 20:57:21;;;;;;;3.63;2.57;;;;;;;-0.79;84.19;100530.22;3888698;74;396075;-73
2021/03/05 21:02:42;;;;;;;1.07;0.97;;;;;;;-0.89;84.85;100539.56;3887796;74;392221;-73
2021/03/05 21:08:03;;;;;;;9.60;2.73;;;;;;;-0.94;88.51;100547.72;3887499;73;400241;-72
2021/03/05 21:13:24;;;;;;;3.87;2.90;;;;;;;-1.08;88.62;100546.81;3887528;74;392994;-72
2021/03/05 21:18:45;;;;;;;5.07;2.27;;;;;;;-1.12;88.62;100550.63;3887172;74;395044;-73
2021/03/05 21:24:07;;;;;;;8.03;2.63;;;;;;;-1.22;89.32;100558.84;3888212;74;396070;-72
2021/03/05 21:29:28;;;;;;;1.10;1.00;;;;;;;-1.24;96.72;100565.63;3887871;74;389825;-73
2021/03/05 21:34:50;;;;;;;2.50;1.53;;;;;;;-1.38;96.62;100569.53;3883262;74;396367;-73
2021/03/05 21:40:12;;;;;;;5.50;3.00;;;;;;;-1.44;96.01;100569.34;3882734;74;386707;-73
2021/03/05 21:45:33;;;;;;;1.57;1.47;;;;;;;-1.51;96.99;100566.70;3882657;74;396059;-73
2021/03/05 21:50:55;;;;;;;8.77;1.80;;;;;;;-1.52;98.57;100565.91;3882150;74;395034;-73
2021/03/05 21:56:17;;;;;;;1.13;1.03;;;;;;;-1.62;100.00;100569.25;3881883;74;389821;-73
2021/03/05 22:01:38;;;;;;;4.70;2.10;;;;;;;-1.67;100.00;100572.53;3881880;74;395336;-75
2021/03/05 22:06:59;;;;;;;1.10;1.00;;;;;;;-1.73;100.00;100579.04;3882515;74;387744;-73
2021/03/05 22:12:21;;;;;;;2.37;1.50;;;;;;;-1.83;100.00;100580.50;3882395;74;394283;-73
2021/03/05 22:17:43;;;;;;;2.23;2.03;;;;;;;-1.61;100.00;100592.42;3883157;74;396114;-73
2021/03/05 22:23:04;;;;;;;0.87;0.60;;;;;;;-1.79;100.00;100590.44;3883568;74;383819;-72
2021/03/05 22:28:25;;;;;;;3.90;3.50;;;;;;;-1.69;100.00;100597.08;3882676;74;390874;-74
2021/03/05 22:33:46;;;;;;;9.30;3.27;;;;;;;-1.73;100.00;100606.84;3884815;74;396181;-73
2021/03/05 22:39:07;;;;;;;3.73;2.33;;;;;;;-1.95;100.00;100597.56;3887050;74;396298;-72
2021/03/05 22:44:28;;;;;;;2.23;2.03;;;;;;;-2.06;100.00;100596.05;3887121;74;396085;-72
2021/03/05 22:49:49;;;;;;;6.73;1.17;;;;;;;-2.15;100.00;100593.13;3888622;74;394039;-73
2021/03/05 22:55:13;;;;;;;1.50;1.30;;;;;;;-2.22;100.00;100600.72;3887885;74;392141;-73
2021/03/05 23:00:34;;;;;;;3.23;3.03;;;;;;;-2.31;100.00;100607.78;3887403;73;396060;-72
2021/03/05 23:05:56;;;;;;;1.27;1.17;;;;;;;-2.27;100.00;100603.98;3888718;74;392146;-73
2021/03/05 23:11:17;;;;;;;1.03;0.93;;;;;;;-2.17;100.00;100604.72;3888654;74;383854;-73
2021/03/05 23:16:38;;;;;;;6.30;1.40;;;;;;;-2.32;100.00;100611.55;3887396;74;391853;-73
2021/03/05 23:22:00;;;;;;;2.37;2.10;;;;;;;-2.37;100.00;100612.95;3887588;74;396358;-72
2021/03/05 23:27:22;;;;;;;1.00;0.90;;;;;;;-2.56;100.00;100611.16;3888383;74;383779;-73
2021/03/05 23:32:43;;;;;;;1.37;1.27;;;;;;;-2.68;100.00;100613.36;3887697;74;396074;-73
2021/03/05 23:38:10;;;;;;;1.03;0.93;;;;;;;-2.70;100.00;100618.77;3888075;74;387777;-73
2021/03/05 23:43:31;;;;;;;1.07;0.97;;;;;;;-2.77;100.00;100626.34;3887922;74;391919;-73
2021/03/05 23:48:52;;;;;;;2.83;2.53;;;;;;;-2.86;100.00;100623.39;3887300;74;396087;-73
2021/03/05 23:54:14;;;;;;;1.20;1.07;;;;;;;-2.98;100.00;100624.77;3887736;74;395123;-73
2021/03/05 23:59:34;;;;;;;5.07;1.40;;;;;;;-3.06;100.00;100623.98;3888592;74;394009;-73
